Indianapolis, Indiana
Traffic Map
Current Weather Conditions
Indianapolis, Indiana
Broken Clouds
Broken Clouds
10°
Feels Like: 10°
Wind Chill: 10° Ceiling: 25000
Heat Index: 10° Visibility: 10mi
Dew Point: Wind: 7mph
Humidity: 54% Direction: 120° (ESE)
Pressure: 30.27in Gusts: 0mph
Raw Report DataKIND 201254Z 12006KT 10SM BKN250 10/01 A3027 RMK AO2 SLP249 T01000011
Traffic Incident Summary
Active as of:
Severity:
Category:
InformationThere was an issue retrieving the traffic information for this location. Please try a different location or try again shortly.
Advertisements
At Last! Intellicast now available for iPhone and Android